sensor_id;sensor_type;location;lat;lon;timestamp;pressure;altitude;pressure_sealevel;temperature;humidity
72465;BME280;60471;52.150;4.508;2022-07-10T00:00:43;102600.75;;;18.10;55.70
72465;BME280;60471;52.150;4.508;2022-07-10T00:03:10;102596.59;;;18.04;55.68
72465;BME280;60471;52.150;4.508;2022-07-10T00:05:36;102601.84;;;17.88;55.59
72465;BME280;60471;52.150;4.508;2022-07-10T00:08:02;102605.28;;;17.73;56.35
72465;BME280;60471;52.150;4.508;2022-07-10T00:10:29;102596.56;;;17.70;56.47
72465;BME280;60471;52.150;4.508;2022-07-10T00:12:55;102598.13;;;17.74;56.28
72465;BME280;60471;52.150;4.508;2022-07-10T00:15:22;102599.69;;;17.78;56.26
72465;BME280;60471;52.150;4.508;2022-07-10T00:17:49;102594.28;;;17.79;56.19
72465;BME280;60471;52.150;4.508;2022-07-10T00:20:15;102597.50;;;17.86;55.85
72465;BME280;60471;52.150;4.508;2022-07-10T00:22:42;102591.59;;;17.79;56.22
72465;BME280;60471;52.150;4.508;2022-07-10T00:25:11;102592.19;;;17.86;56.02
72465;BME280;60471;52.150;4.508;2022-07-10T00:27:38;102582.34;;;17.86;56.31
72465;BME280;60471;52.150;4.508;2022-07-10T00:30:06;102585.88;;;17.87;56.50
72465;BME280;60471;52.150;4.508;2022-07-10T00:32:34;102578.44;;;17.93;56.19
72465;BME280;60471;52.150;4.508;2022-07-10T00:35:02;102575.78;;;17.93;56.29
72465;BME280;60471;52.150;4.508;2022-07-10T00:37:29;102577.78;;;17.88;56.40
72465;BME280;60471;52.150;4.508;2022-07-10T00:39:55;102577.09;;;17.85;56.61
72465;BME280;60471;52.150;4.508;2022-07-10T00:42:21;102571.22;;;17.95;56.29
72465;BME280;60471;52.150;4.508;2022-07-10T00:44:48;102578.03;;;18.01;56.34
72465;BME280;60471;52.150;4.508;2022-07-10T00:47:14;102578.66;;;18.06;55.96
72465;BME280;60471;52.150;4.508;2022-07-10T00:49:43;102576.22;;;18.02;56.18
72465;BME280;60471;52.150;4.508;2022-07-10T00:52:12;102578.75;;;17.87;56.25
72465;BME280;60471;52.150;4.508;2022-07-10T00:54:46;102574.81;;;17.77;56.66
72465;BME280;60471;52.150;4.508;2022-07-10T00:57:14;102579.59;;;17.88;56.26
72465;BME280;60471;52.150;4.508;2022-07-10T00:59:41;102570.66;;;17.89;56.46
72465;BME280;60471;52.150;4.508;2022-07-10T01:02:09;102571.91;;;17.82;56.53
72465;BME280;60471;52.150;4.508;2022-07-10T01:04:36;102575.59;;;17.79;56.92
72465;BME280;60471;52.150;4.508;2022-07-10T01:07:03;102573.84;;;17.78;56.82
72465;BME280;60471;52.150;4.508;2022-07-10T01:09:29;102585.47;;;17.77;57.09
72465;BME280;60471;52.150;4.508;2022-07-10T01:11:56;102573.31;;;17.72;56.96
72465;BME280;60471;52.150;4.508;2022-07-10T01:14:27;102571.50;;;17.72;56.97
72465;BME280;60471;52.150;4.508;2022-07-10T01:16:58;102572.47;;;17.71;56.97
72465;BME280;60471;52.150;4.508;2022-07-10T01:19:25;102570.41;;;17.57;57.52
72465;BME280;60471;52.150;4.508;2022-07-10T01:21:51;102562.41;;;17.57;57.78
72465;BME280;60471;52.150;4.508;2022-07-10T01:24:17;102559.75;;;17.57;58.01
72465;BME280;60471;52.150;4.508;2022-07-10T01:26:44;102557.06;;;17.57;57.86
72465;BME280;60471;52.150;4.508;2022-07-10T01:29:10;102551.75;;;17.57;57.91
72465;BME280;60471;52.150;4.508;2022-07-10T01:31:37;102546.97;;;17.64;57.89
72465;BME280;60471;52.150;4.508;2022-07-10T01:34:06;102545.06;;;17.66;58.12
72465;BME280;60471;52.150;4.508;2022-07-10T01:36:37;102539.75;;;17.66;57.80
72465;BME280;60471;52.150;4.508;2022-07-10T01:39:04;102542.31;;;17.67;58.18
72465;BME280;60471;52.150;4.508;2022-07-10T01:41:32;102537.03;;;17.85;57.58
72465;BME280;60471;52.150;4.508;2022-07-10T01:43:58;102532.47;;;17.87;57.63
72465;BME280;60471;52.150;4.508;2022-07-10T01:46:25;102534.75;;;17.94;57.21
72465;BME280;60471;52.150;4.508;2022-07-10T01:48:51;102532.09;;;17.94;57.30
72465;BME280;60471;52.150;4.508;2022-07-10T01:51:18;102532.09;;;17.94;57.40
72465;BME280;60471;52.150;4.508;2022-07-10T01:53:45;102539.31;;;17.92;57.93
72465;BME280;60471;52.150;4.508;2022-07-10T01:56:12;102527.69;;;17.93;57.81
72465;BME280;60471;52.150;4.508;2022-07-10T01:58:41;102531.31;;;17.92;58.03
72465;BME280;60471;52.150;4.508;2022-07-10T02:01:08;102533.59;;;17.83;57.98
72465;BME280;60471;52.150;4.508;2022-07-10T02:03:35;102538.44;;;17.75;58.27
72465;BME280;60471;52.150;4.508;2022-07-10T02:06:20;102528.78;;;17.72;58.64
72465;BME280;60471;52.150;4.508;2022-07-10T02:08:46;102538.69;;;17.70;58.87
72465;BME280;60471;52.150;4.508;2022-07-10T02:11:12;102527.69;;;17.76;58.68
72465;BME280;60471;52.150;4.508;2022-07-10T02:13:39;102529.03;;;17.85;58.41
72465;BME280;60471;52.150;4.508;2022-07-10T02:16:05;102518.97;;;17.90;58.42
72465;BME280;60471;52.150;4.508;2022-07-10T02:18:32;102518.66;;;17.96;58.40
72465;BME280;60471;52.150;4.508;2022-07-10T02:20:58;102522.31;;;18.11;57.63
72465;BME280;60471;52.150;4.508;2022-07-10T02:23:24;102519.25;;;18.01;58.22
72465;BME280;60471;52.150;4.508;2022-07-10T02:25:50;102529.97;;;17.84;58.65
72465;BME280;60471;52.150;4.508;2022-07-10T02:28:16;102532.50;;;17.70;59.27
72465;BME280;60471;52.150;4.508;2022-07-10T02:30:43;102532.59;;;17.66;59.17
72465;BME280;60471;52.150;4.508;2022-07-10T02:33:09;102538.00;;;17.65;59.75
72465;BME280;60471;52.150;4.508;2022-07-10T02:35:35;102536.53;;;17.59;59.73
72465;BME280;60471;52.150;4.508;2022-07-10T02:38:01;102536.81;;;17.53;60.18
72465;BME280;60471;52.150;4.508;2022-07-10T02:40:27;102538.88;;;17.48;59.99
72465;BME280;60471;52.150;4.508;2022-07-10T02:42:54;102539.00;;;17.45;60.21
72465;BME280;60471;52.150;4.508;2022-07-10T02:45:20;102545.06;;;17.49;60.51
72465;BME280;60471;52.150;4.508;2022-07-10T02:47:46;102543.72;;;17.57;60.07
72465;BME280;60471;52.150;4.508;2022-07-10T02:50:12;102535.66;;;17.59;59.99
72465;BME280;60471;52.150;4.508;2022-07-10T02:52:39;102536.94;;;17.69;59.31
72465;BME280;60471;52.150;4.508;2022-07-10T02:55:05;102533.03;;;17.76;59.39
72465;BME280;60471;52.150;4.508;2022-07-10T02:57:32;102534.13;;;17.72;59.08
72465;BME280;60471;52.150;4.508;2022-07-10T02:59:58;102521.72;;;17.71;59.25
72465;BME280;60471;52.150;4.508;2022-07-10T03:02:24;102527.78;;;17.75;59.23
72465;BME280;60471;52.150;4.508;2022-07-10T03:04:50;102528.53;;;17.77;59.06
72465;BME280;60471;52.150;4.508;2022-07-10T03:07:17;102519.13;;;17.87;58.63
72465;BME280;60471;52.150;4.508;2022-07-10T03:09:43;102524.94;;;17.78;59.10
72465;BME280;60471;52.150;4.508;2022-07-10T03:12:09;102511.88;;;17.89;58.77
72465;BME280;60471;52.150;4.508;2022-07-10T03:14:35;102516.16;;;17.93;58.43
72465;BME280;60471;52.150;4.508;2022-07-10T03:17:02;102510.38;;;18.01;58.45
72465;BME280;60471;52.150;4.508;2022-07-10T03:19:28;102507.78;;;17.99;58.11
72465;BME280;60471;52.150;4.508;2022-07-10T03:21:54;102491.84;;;17.98;58.68
72465;BME280;60471;52.150;4.508;2022-07-10T03:24:20;102501.13;;;18.08;58.28
72465;BME280;60471;52.150;4.508;2022-07-10T03:26:47;102501.75;;;17.95;58.38
72465;BME280;60471;52.150;4.508;2022-07-10T03:29:13;102503.09;;;18.04;58.45
72465;BME280;60471;52.150;4.508;2022-07-10T03:31:39;102498.28;;;18.11;58.82
72465;BME280;60471;52.150;4.508;2022-07-10T03:34:05;102497.78;;;18.20;58.43
72465;BME280;60471;52.150;4.508;2022-07-10T03:36:31;102502.44;;;18.16;58.66
72465;BME280;60471;52.150;4.508;2022-07-10T03:38:58;102496.41;;;18.13;58.86
72465;BME280;60471;52.150;4.508;2022-07-10T03:41:24;102505.88;;;18.18;58.60
72465;BME280;60471;52.150;4.508;2022-07-10T03:43:50;102497.00;;;18.18;58.23
72465;BME280;60471;52.150;4.508;2022-07-10T03:46:16;102494.72;;;18.28;58.58
72465;BME280;60471;52.150;4.508;2022-07-10T03:48:42;102492.63;;;18.33;57.71
72465;BME280;60471;52.150;4.508;2022-07-10T03:51:09;102493.84;;;18.27;58.39
72465;BME280;60471;52.150;4.508;2022-07-10T03:53:35;102487.56;;;18.28;58.06
72465;BME280;60471;52.150;4.508;2022-07-10T03:56:02;102495.09;;;18.37;57.58
72465;BME280;60471;52.150;4.508;2022-07-10T03:58:29;102484.19;;;18.24;58.02
72465;BME280;60471;52.150;4.508;2022-07-10T04:00:55;102486.16;;;18.21;57.92
72465;BME280;60471;52.150;4.508;2022-07-10T04:03:21;102488.31;;;18.14;58.29
72465;BME280;60471;52.150;4.508;2022-07-10T04:05:48;102484.81;;;18.12;58.77
72465;BME280;60471;52.150;4.508;2022-07-10T04:08:14;102481.66;;;18.21;58.07
72465;BME280;60471;52.150;4.508;2022-07-10T04:10:40;102471.31;;;18.15;58.61
72465;BME280;60471;52.150;4.508;2022-07-10T04:13:06;102477.91;;;18.25;58.26
72465;BME280;60471;52.150;4.508;2022-07-10T04:15:32;102474.38;;;18.25;57.76
72465;BME280;60471;52.150;4.508;2022-07-10T04:17:59;102475.22;;;18.25;58.24
72465;BME280;60471;52.150;4.508;2022-07-10T04:20:25;102478.41;;;18.16;58.87
72465;BME280;60471;52.150;4.508;2022-07-10T04:22:51;102489.09;;;18.16;58.37
72465;BME280;60471;52.150;4.508;2022-07-10T04:25:17;102493.34;;;18.03;58.84
72465;BME280;60471;52.150;4.508;2022-07-10T04:27:43;102493.34;;;18.03;58.74
72465;BME280;60471;52.150;4.508;2022-07-10T04:30:10;102487.22;;;18.01;59.15
72465;BME280;60471;52.150;4.508;2022-07-10T04:32:36;102488.25;;;17.99;59.17
72465;BME280;60471;52.150;4.508;2022-07-10T04:35:03;102485.25;;;18.05;59.11
72465;BME280;60471;52.150;4.508;2022-07-10T04:37:29;102494.44;;;17.99;59.80
72465;BME280;60471;52.150;4.508;2022-07-10T04:39:56;102492.06;;;18.10;59.79
72465;BME280;60471;52.150;4.508;2022-07-10T04:42:22;102498.19;;;18.12;59.11
72465;BME280;60471;52.150;4.508;2022-07-10T04:44:48;102495.84;;;18.06;59.32
72465;BME280;60471;52.150;4.508;2022-07-10T04:47:14;102506.16;;;18.14;58.96
72465;BME280;60471;52.150;4.508;2022-07-10T04:49:41;102512.75;;;18.07;59.02
72465;BME280;60471;52.150;4.508;2022-07-10T04:52:07;102510.47;;;17.99;59.75
72465;BME280;60471;52.150;4.508;2022-07-10T04:54:33;102510.53;;;18.15;59.44
72465;BME280;60471;52.150;4.508;2022-07-10T04:56:59;102504.41;;;18.13;58.83
72465;BME280;60471;52.150;4.508;2022-07-10T04:59:26;102507.38;;;18.24;58.85
72465;BME280;60471;52.150;4.508;2022-07-10T05:01:52;102505.31;;;18.29;58.71
72465;BME280;60471;52.150;4.508;2022-07-10T05:04:19;102501.88;;;18.10;58.96
72465;BME280;60471;52.150;4.508;2022-07-10T05:06:45;102513.03;;;18.18;59.26
72465;BME280;60471;52.150;4.508;2022-07-10T05:09:12;102508.88;;;18.12;59.54
72465;BME280;60471;52.150;4.508;2022-07-10T05:11:38;102521.38;;;18.12;59.86
72465;BME280;60471;52.150;4.508;2022-07-10T05:14:04;102508.75;;;17.98;59.85
72465;BME280;60471;52.150;4.508;2022-07-10T05:16:30;102512.09;;;18.02;60.25
72465;BME280;60471;52.150;4.508;2022-07-10T05:18:56;102502.72;;;17.94;60.31
72465;BME280;60471;52.150;4.508;2022-07-10T05:21:23;102507.03;;;17.97;60.58
72465;BME280;60471;52.150;4.508;2022-07-10T05:23:51;102511.25;;;18.01;60.52
72465;BME280;60471;52.150;4.508;2022-07-10T05:26:17;102503.53;;;18.12;59.97
72465;BME280;60471;52.150;4.508;2022-07-10T05:28:44;102501.69;;;18.30;59.80
72465;BME280;60471;52.150;4.508;2022-07-10T05:31:10;102505.59;;;18.40;59.53
72465;BME280;60471;52.150;4.508;2022-07-10T05:33:36;102505.88;;;18.51;58.98
72465;BME280;60471;52.150;4.508;2022-07-10T05:36:04;102502.06;;;18.40;59.18
72465;BME280;60471;52.150;4.508;2022-07-10T05:38:31;102503.22;;;18.18;59.70
72465;BME280;60471;52.150;4.508;2022-07-10T05:40:57;102495.13;;;18.20;60.06
72465;BME280;60471;52.150;4.508;2022-07-10T05:43:23;102494.06;;;18.22;60.07
72465;BME280;60471;52.150;4.508;2022-07-10T05:45:49;102500.72;;;18.15;60.29
72465;BME280;60471;52.150;4.508;2022-07-10T05:48:15;102495.66;;;18.27;60.33
72465;BME280;60471;52.150;4.508;2022-07-10T05:50:42;102502.25;;;18.19;60.29
72465;BME280;60471;52.150;4.508;2022-07-10T05:53:08;102503.38;;;18.15;60.11
72465;BME280;60471;52.150;4.508;2022-07-10T05:55:34;102495.88;;;18.22;60.27
72465;BME280;60471;52.150;4.508;2022-07-10T05:58:00;102499.28;;;18.25;60.37
72465;BME280;60471;52.150;4.508;2022-07-10T06:00:26;102496.44;;;18.29;60.33
72465;BME280;60471;52.150;4.508;2022-07-10T06:02:53;102492.78;;;18.47;59.78
72465;BME280;60471;52.150;4.508;2022-07-10T06:05:19;102498.03;;;18.48;59.36
72465;BME280;60471;52.150;4.508;2022-07-10T06:07:45;102499.22;;;18.43;59.15
72465;BME280;60471;52.150;4.508;2022-07-10T06:10:11;102491.09;;;18.29;59.17
72465;BME280;60471;52.150;4.508;2022-07-10T06:12:37;102492.03;;;18.28;59.64
72465;BME280;60471;52.150;4.508;2022-07-10T06:15:04;102486.63;;;18.45;58.86
72465;BME280;60471;52.150;4.508;2022-07-10T06:17:30;102488.00;;;18.36;59.62
72465;BME280;60471;52.150;4.508;2022-07-10T06:19:57;102493.72;;;18.46;59.49
72465;BME280;60471;52.150;4.508;2022-07-10T06:22:23;102497.56;;;18.40;59.88
72465;BME280;60471;52.150;4.508;2022-07-10T06:25:01;102498.97;;;18.47;59.70
72465;BME280;60471;52.150;4.508;2022-07-10T06:27:29;102495.00;;;18.39;60.12
72465;BME280;60471;52.150;4.508;2022-07-10T06:29:56;102487.56;;;18.44;60.06
72465;BME280;60471;52.150;4.508;2022-07-10T06:32:23;102492.69;;;18.15;60.40
72465;BME280;60471;52.150;4.508;2022-07-10T06:34:51;102497.22;;;18.31;60.25
72465;BME280;60471;52.150;4.508;2022-07-10T06:37:19;102491.47;;;18.38;60.34
72465;BME280;60471;52.150;4.508;2022-07-10T06:39:46;102495.84;;;18.39;60.36
72465;BME280;60471;52.150;4.508;2022-07-10T06:42:15;102491.09;;;18.44;60.60
72465;BME280;60471;52.150;4.508;2022-07-10T06:44:43;102495.16;;;18.69;59.65
72465;BME280;60471;52.150;4.508;2022-07-10T06:47:10;102491.19;;;18.76;59.80
72465;BME280;60471;52.150;4.508;2022-07-10T06:49:56;102503.59;;;18.77;59.23
72465;BME280;60471;52.150;4.508;2022-07-10T06:52:23;102501.88;;;18.76;59.00
72465;BME280;60471;52.150;4.508;2022-07-10T06:54:50;102504.81;;;18.87;59.00
72465;BME280;60471;52.150;4.508;2022-07-10T06:57:17;102500.66;;;19.13;58.40
72465;BME280;60471;52.150;4.508;2022-07-10T06:59:45;102499.38;;;19.04;58.85
72465;BME280;60471;52.150;4.508;2022-07-10T07:02:12;102498.66;;;19.17;58.14
72465;BME280;60471;52.150;4.508;2022-07-10T07:04:38;102497.91;;;19.15;58.32
72465;BME280;60471;52.150;4.508;2022-07-10T07:07:04;102504.06;;;19.01;58.76
72465;BME280;60471;52.150;4.508;2022-07-10T07:09:31;102507.47;;;18.87;59.32
72465;BME280;60471;52.150;4.508;2022-07-10T07:11:57;102511.47;;;19.11;59.03
72465;BME280;60471;52.150;4.508;2022-07-10T07:14:23;102512.81;;;19.19;59.00
72465;BME280;60471;52.150;4.508;2022-07-10T07:16:49;102515.25;;;19.23;58.88
72465;BME280;60471;52.150;4.508;2022-07-10T07:19:35;102509.53;;;19.29;58.53
72465;BME280;60471;52.150;4.508;2022-07-10T07:22:20;102502.69;;;19.55;57.74
72465;BME280;60471;52.150;4.508;2022-07-10T07:25:07;102503.47;;;19.57;57.64
72465;BME280;60471;52.150;4.508;2022-07-10T07:27:36;102508.28;;;19.66;57.06
72465;BME280;60471;52.150;4.508;2022-07-10T07:30:04;102507.94;;;19.41;57.21
72465;BME280;60471;52.150;4.508;2022-07-10T07:32:32;102506.03;;;19.59;57.14
72465;BME280;60471;52.150;4.508;2022-07-10T07:35:00;102512.88;;;19.49;57.20
72465;BME280;60471;52.150;4.508;2022-07-10T07:37:47;102507.22;;;19.23;57.06
72465;BME280;60471;52.150;4.508;2022-07-10T07:40:18;102512.41;;;19.10;57.89
72465;BME280;60471;52.150;4.508;2022-07-10T07:42:47;102508.41;;;19.18;57.75
72465;BME280;60471;52.150;4.508;2022-07-10T07:45:13;102516.03;;;18.94;58.26
72465;BME280;60471;52.150;4.508;2022-07-10T07:47:56;102520.78;;;19.04;58.29
72465;BME280;60471;52.150;4.508;2022-07-10T07:50:25;102508.84;;;19.10;58.12
72465;BME280;60471;52.150;4.508;2022-07-10T07:52:53;102508.00;;;19.25;57.76
72465;BME280;60471;52.150;4.508;2022-07-10T07:55:20;102516.97;;;19.24;57.86
72465;BME280;60471;52.150;4.508;2022-07-10T07:57:51;102512.47;;;19.09;58.48
72465;BME280;60471;52.150;4.508;2022-07-10T08:00:19;102514.16;;;19.11;57.94
72465;BME280;60471;52.150;4.508;2022-07-10T08:02:49;102520.41;;;19.26;57.54
72465;BME280;60471;52.150;4.508;2022-07-10T08:05:16;102513.91;;;19.30;57.30
72465;BME280;60471;52.150;4.508;2022-07-10T08:07:52;102514.88;;;19.45;56.92
72465;BME280;60471;52.150;4.508;2022-07-10T08:10:22;102511.81;;;19.51;56.40
72465;BME280;60471;52.150;4.508;2022-07-10T08:12:50;102517.50;;;19.77;56.22
72465;BME280;60471;52.150;4.508;2022-07-10T08:15:17;102506.81;;;20.05;55.25
72465;BME280;60471;52.150;4.508;2022-07-10T08:17:52;102504.56;;;19.83;56.14
72465;BME280;60471;52.150;4.508;2022-07-10T08:20:21;102509.69;;;20.16;56.45
72465;BME280;60471;52.150;4.508;2022-07-10T08:22:49;102505.22;;;20.31;54.71
72465;BME280;60471;52.150;4.508;2022-07-10T08:25:15;102506.63;;;20.08;55.44
72465;BME280;60471;52.150;4.508;2022-07-10T08:27:41;102502.03;;;20.39;54.87
72465;BME280;60471;52.150;4.508;2022-07-10T08:30:09;102498.16;;;20.44;54.46
72465;BME280;60471;52.150;4.508;2022-07-10T08:32:39;102508.47;;;20.22;54.99
72465;BME280;60471;52.150;4.508;2022-07-10T08:35:07;102501.94;;;20.12;54.40
72465;BME280;60471;52.150;4.508;2022-07-10T08:37:42;102513.53;;;20.12;54.55
72465;BME280;60471;52.150;4.508;2022-07-10T08:40:12;102501.66;;;20.16;54.26
72465;BME280;60471;52.150;4.508;2022-07-10T08:42:41;102511.19;;;19.92;54.83
72465;BME280;60471;52.150;4.508;2022-07-10T08:45:10;102507.28;;;19.97;54.57
72465;BME280;60471;52.150;4.508;2022-07-10T08:47:38;102507.72;;;19.76;54.51
72465;BME280;60471;52.150;4.508;2022-07-10T08:50:16;102506.19;;;19.86;54.35
72465;BME280;60471;52.150;4.508;2022-07-10T08:53:00;102508.91;;;20.00;54.41
72465;BME280;60471;52.150;4.508;2022-07-10T08:55:30;102510.25;;;20.07;54.81
72465;BME280;60471;52.150;4.508;2022-07-10T08:57:58;102506.16;;;20.30;53.95
72465;BME280;60471;52.150;4.508;2022-07-10T09:00:25;102507.38;;;20.39;53.90
72465;BME280;60471;52.150;4.508;2022-07-10T09:02:53;102501.66;;;20.16;54.07
72465;BME280;60471;52.150;4.508;2022-07-10T09:05:21;102498.88;;;20.18;53.68
72465;BME280;60471;52.150;4.508;2022-07-10T09:07:49;102493.59;;;20.16;53.42
72465;BME280;60471;52.150;4.508;2022-07-10T09:10:15;102497.53;;;20.25;53.42
72465;BME280;60471;52.150;4.508;2022-07-10T09:12:56;102486.63;;;20.00;52.84
72465;BME280;60471;52.150;4.508;2022-07-10T09:15:25;102497.34;;;20.14;51.99
72465;BME280;60471;52.150;4.508;2022-07-10T09:17:54;102489.75;;;20.06;53.05
72465;BME280;60471;52.150;4.508;2022-07-10T09:20:36;102495.69;;;19.97;52.79
72465;BME280;60471;52.150;4.508;2022-07-10T09:23:22;102489.09;;;20.17;52.82
72465;BME280;60471;52.150;4.508;2022-07-10T09:25:52;102484.91;;;20.41;52.12
72465;BME280;60471;52.150;4.508;2022-07-10T09:28:20;102483.75;;;20.31;52.86
72465;BME280;60471;52.150;4.508;2022-07-10T09:30:48;102483.91;;;20.71;51.95
72465;BME280;60471;52.150;4.508;2022-07-10T09:41:19;102483.81;;;20.87;51.98
72465;BME280;60471;52.150;4.508;2022-07-10T09:43:49;102488.59;;;20.81;52.94
72465;BME280;60471;52.150;4.508;2022-07-10T09:46:19;102483.47;;;20.50;52.94
72465;BME280;60471;52.150;4.508;2022-07-10T09:49:00;102477.53;;;20.73;52.05
72465;BME280;60471;52.150;4.508;2022-07-10T09:51:30;102481.22;;;20.85;51.76
72465;BME280;60471;52.150;4.508;2022-07-10T09:54:03;102470.84;;;20.93;51.97
72465;BME280;60471;52.150;4.508;2022-07-10T09:56:38;102482.66;;;21.18;51.34
72465;BME280;60471;52.150;4.508;2022-07-10T09:59:14;102484.44;;;21.31;50.52
72465;BME280;60471;52.150;4.508;2022-07-10T10:01:51;102475.22;;;21.35;50.71
72465;BME280;60471;52.150;4.508;2022-07-10T10:04:22;102471.19;;;21.68;50.44
72465;BME280;60471;52.150;4.508;2022-07-10T10:06:53;102466.28;;;21.87;50.73
72465;BME280;60471;52.150;4.508;2022-07-10T10:09:38;102470.69;;;22.14;50.61
72465;BME280;60471;52.150;4.508;2022-07-10T10:14:43;102466.66;;;21.43;51.90
72465;BME280;60471;52.150;4.508;2022-07-10T10:17:11;102460.88;;;21.62;51.64
72465;BME280;60471;52.150;4.508;2022-07-10T10:19:40;102458.22;;;21.75;50.40
72465;BME280;60471;52.150;4.508;2022-07-10T10:22:25;102452.19;;;21.84;50.34
72465;BME280;60471;52.150;4.508;2022-07-10T10:24:54;102456.69;;;21.70;47.73
72465;BME280;60471;52.150;4.508;2022-07-10T10:27:21;102455.94;;;21.68;46.03
72465;BME280;60471;52.150;4.508;2022-07-10T10:29:50;102458.72;;;21.92;46.92
72465;BME280;60471;52.150;4.508;2022-07-10T10:32:18;102456.19;;;22.04;46.06
72465;BME280;60471;52.150;4.508;2022-07-10T10:34:46;102461.75;;;21.75;47.11
72465;BME280;60471;52.150;4.508;2022-07-10T10:39:53;102458.31;;;21.86;46.59
72465;BME280;60471;52.150;4.508;2022-07-10T10:42:35;102461.75;;;22.13;46.18
72465;BME280;60471;52.150;4.508;2022-07-10T10:45:23;102459.63;;;22.18;44.99
72465;BME280;60471;52.150;4.508;2022-07-10T10:48:00;102445.31;;;22.18;43.39
72465;BME280;60471;52.150;4.508;2022-07-10T10:51:01;102455.13;;;22.06;43.42
72465;BME280;60471;52.150;4.508;2022-07-10T10:53:29;102459.38;;;21.70;45.33
72465;BME280;60471;52.150;4.508;2022-07-10T10:58:27;102459.81;;;21.90;44.23
72465;BME280;60471;52.150;4.508;2022-07-10T11:01:03;102453.16;;;21.95;44.33
72465;BME280;60471;52.150;4.508;2022-07-10T11:03:29;102456.19;;;22.04;44.19
72465;BME280;60471;52.150;4.508;2022-07-10T11:05:56;102446.00;;;22.45;44.74
72465;BME280;60471;52.150;4.508;2022-07-10T11:08:39;102440.97;;;22.77;43.46
72465;BME280;60471;52.150;4.508;2022-07-10T11:11:41;102448.44;;;22.98;42.96
72465;BME280;60471;52.150;4.508;2022-07-10T11:14:08;102440.84;;;22.79;43.24
72465;BME280;60471;52.150;4.508;2022-07-10T11:16:37;102439.91;;;22.67;43.45
72465;BME280;60471;52.150;4.508;2022-07-10T11:19:03;102441.00;;;22.65;42.49
72465;BME280;60471;52.150;4.508;2022-07-10T11:21:46;102434.94;;;22.87;43.52
72465;BME280;60471;52.150;4.508;2022-07-10T11:30:12;102426.63;;;22.90;43.80
72465;BME280;60471;52.150;4.508;2022-07-10T11:32:39;102429.44;;;23.12;44.11
72465;BME280;60471;52.150;4.508;2022-07-10T11:35:10;102419.88;;;23.08;44.39
72465;BME280;60471;52.150;4.508;2022-07-10T11:37:48;102438.41;;;22.39;45.61
72465;BME280;60471;52.150;4.508;2022-07-10T11:40:19;102411.78;;;22.60;44.66
72465;BME280;60471;52.150;4.508;2022-07-10T11:45:23;102430.00;;;23.04;45.55
72465;BME280;60471;52.150;4.508;2022-07-10T11:47:55;102423.25;;;22.99;46.60
72465;BME280;60471;52.150;4.508;2022-07-10T11:50:22;102416.06;;;23.10;46.02
72465;BME280;60471;52.150;4.508;2022-07-10T11:52:49;102418.66;;;23.47;44.38
72465;BME280;60471;52.150;4.508;2022-07-10T11:55:21;102416.56;;;23.51;44.62
72465;BME280;60471;52.150;4.508;2022-07-10T11:57:49;102429.91;;;23.52;44.63
72465;BME280;60471;52.150;4.508;2022-07-10T12:00:25;102414.16;;;23.12;46.18
72465;BME280;60471;52.150;4.508;2022-07-10T12:02:57;102403.41;;;23.00;46.99
72465;BME280;60471;52.150;4.508;2022-07-10T12:05:42;102419.16;;;23.17;46.29
72465;BME280;60471;52.150;4.508;2022-07-10T12:08:08;102421.66;;;23.31;45.08
72465;BME280;60471;52.150;4.508;2022-07-10T12:10:34;102414.72;;;23.51;44.75
72465;BME280;60471;52.150;4.508;2022-07-10T12:13:11;102422.31;;;23.35;46.09
72465;BME280;60471;52.150;4.508;2022-07-10T12:15:43;102418.41;;;23.50;45.30
72465;BME280;60471;52.150;4.508;2022-07-10T12:18:21;102414.47;;;23.08;46.45
72465;BME280;60471;52.150;4.508;2022-07-10T12:20:49;102414.41;;;23.56;45.60
72465;BME280;60471;52.150;4.508;2022-07-10T12:23:16;102418.50;;;23.37;46.54
72465;BME280;60471;52.150;4.508;2022-07-10T12:25:46;102423.41;;;23.79;44.61
72465;BME280;60471;52.150;4.508;2022-07-10T12:28:15;102426.59;;;23.95;44.71
72465;BME280;60471;52.150;4.508;2022-07-10T12:30:43;102424.63;;;23.39;45.32
72465;BME280;60471;52.150;4.508;2022-07-10T12:33:12;102426.78;;;23.58;44.64
72465;BME280;60471;52.150;4.508;2022-07-10T12:35:57;102411.50;;;23.81;46.16
72465;BME280;60471;52.150;4.508;2022-07-10T12:38:29;102435.22;;;23.19;46.67
72465;BME280;60471;52.150;4.508;2022-07-10T12:41:07;102411.16;;;23.04;47.23
72465;BME280;60471;52.150;4.508;2022-07-10T12:43:38;102425.75;;;22.89;48.00
72465;BME280;60471;52.150;4.508;2022-07-10T12:46:21;102417.59;;;22.91;49.09
72465;BME280;60471;52.150;4.508;2022-07-10T12:51:34;102415.25;;;23.21;48.15
72465;BME280;60471;52.150;4.508;2022-07-10T12:54:09;102417.81;;;23.47;48.03
72465;BME280;60471;52.150;4.508;2022-07-10T12:56:36;102412.47;;;22.99;49.56
72465;BME280;60471;52.150;4.508;2022-07-10T12:59:12;102412.84;;;22.94;48.92
72465;BME280;60471;52.150;4.508;2022-07-10T13:01:43;102405.25;;;22.99;48.75
72465;BME280;60471;52.150;4.508;2022-07-10T13:04:10;102417.97;;;22.97;49.54
72465;BME280;60471;52.150;4.508;2022-07-10T13:06:38;102408.75;;;22.89;49.71
72465;BME280;60471;52.150;4.508;2022-07-10T13:09:23;102410.94;;;23.07;50.12
72465;BME280;60471;52.150;4.508;2022-07-10T13:11:52;102399.19;;;23.08;48.98
72465;BME280;60471;52.150;4.508;2022-07-10T13:14:20;102405.53;;;23.42;48.13
72465;BME280;60471;52.150;4.508;2022-07-10T13:16:47;102405.66;;;23.52;48.01
72465;BME280;60471;52.150;4.508;2022-07-10T13:19:13;102402.63;;;23.57;47.98
72465;BME280;60471;52.150;4.508;2022-07-10T13:21:39;102400.78;;;23.57;48.45
72465;BME280;60471;52.150;4.508;2022-07-10T13:24:06;102416.88;;;23.00;49.61
72465;BME280;60471;52.150;4.508;2022-07-10T13:26:32;102415.78;;;23.26;49.13